Time;durP1;ratioP1;P1;durP2;ratioP2;P2;SDS_P1;SDS_P2;PMS_P1;PMS_P2;Temp;Humidity;BMP_temperature;BMP_pressure;BME280_temperature;BME280_humidity;BME280_pressure;Samples;Min_cycle;Max_cycle;Signal;HPM_P1;HPM_P2
2022/01/18 00:01:28;;;;;;;4.25;1.30;;;;;;;;;;4993925;28;20058;-40
2022/01/18 00:03:54;;;;;;;3.00;1.52;;;;;;;;;;4993966;28;20113;-42
2022/01/18 00:06:20;;;;;;;4.07;1.42;;;;;;;;;;4993849;28;20526;-42
2022/01/18 00:08:46;;;;;;;3.17;1.40;;;;;;;;;;4993882;28;20030;-40
2022/01/18 00:11:11;;;;;;;5.57;1.73;;;;;;;;;;4994020;28;20100;-40
2022/01/18 00:13:41;;;;;;;3.65;1.45;;;;;;;;;;4993789;28;20171;-40
2022/01/18 00:16:12;;;;;;;3.20;1.65;;;;;;;;;;4993740;28;20433;-40
2022/01/18 00:18:39;;;;;;;4.38;1.30;;;;;;;;;;4993644;28;20406;-40
2022/01/18 00:23:36;;;;;;;3.40;1.70;;;;;;;;;;4993716;28;20035;-40
2022/01/18 00:26:06;;;;;;;2.88;1.20;;;;;;;;;;4993492;28;20026;-40
2022/01/18 00:28:33;;;;;;;6.85;1.63;;;;;;;;;;4993634;28;20022;-40
2022/01/18 00:33:43;;;;;;;8.25;1.65;;;;;;;;;;4993417;28;20022;-41
2022/01/18 00:36:22;;;;;;;3.65;1.35;;;;;;;;;;4993671;28;20022;-40
2022/01/18 00:38:48;;;;;;;3.65;1.35;;;;;;;;;;4993582;28;20129;-40
2022/01/18 00:41:16;;;;;;;5.60;1.48;;;;;;;;;;4993038;28;20113;-40
2022/01/18 00:43:42;;;;;;;3.88;1.60;;;;;;;;;;4993524;28;20030;-42
2022/01/18 00:46:08;;;;;;;3.63;1.95;;;;;;;;;;4993504;28;20030;-39
2022/01/18 00:48:35;;;;;;;5.28;1.35;;;;;;;;;;4993270;28;20105;-41
2022/01/18 00:51:03;;;;;;;5.38;1.48;;;;;;;;;;4993486;28;20034;-40
2022/01/18 00:53:31;;;;;;;3.95;1.50;;;;;;;;;;4993465;28;20038;-40
2022/01/18 00:58:48;;;;;;;2.30;1.13;;;;;;;;;;4992610;28;20046;-40
2022/01/18 01:01:14;;;;;;;2.33;1.33;;;;;;;;;;4993027;28;20100;-41
2022/01/18 01:03:40;;;;;;;3.58;1.52;;;;;;;;;;4993110;28;20421;-41
2022/01/18 01:06:07;;;;;;;2.60;1.60;;;;;;;;;;4993226;28;20085;-40
2022/01/18 01:08:34;;;;;;;3.72;1.55;;;;;;;;;;4993089;28;20038;-40
2022/01/18 01:11:00;;;;;;;3.00;1.42;;;;;;;;;;4993324;28;20064;-40
2022/01/18 01:13:27;;;;;;;4.88;1.63;;;;;;;;;;4993017;28;20022;-40
2022/01/18 01:32:55;;;;;;;3.35;1.67;;;;;;;;;;4993119;28;20085;-40
2022/01/18 01:45:34;;;;;;;3.63;1.73;;;;;;;;;;4993315;28;20027;-40
2022/01/18 01:48:00;;;;;;;5.05;1.95;;;;;;;;;;4992693;28;20534;-40
2022/01/18 01:50:39;;;;;;;4.75;1.88;;;;;;;;;;4992563;28;20076;-40
2022/01/18 01:53:05;;;;;;;2.25;1.30;;;;;;;;;;4995882;28;20377;-40
2022/01/18 01:55:30;;;;;;;2.47;1.42;;;;;;;;;;4996594;28;20105;-40
2022/01/18 01:57:56;;;;;;;6.82;1.83;;;;;;;;;;4996562;28;20050;-40
2022/01/18 02:00:22;;;;;;;3.97;1.70;;;;;;;;;;4996071;28;20462;-40
2022/01/18 02:02:48;;;;;;;2.42;1.98;;;;;;;;;;4994809;28;20402;-40
2022/01/18 02:05:14;;;;;;;3.90;1.40;;;;;;;;;;4996141;28;20049;-40
2022/01/18 02:07:42;;;;;;;2.72;1.48;;;;;;;;;;4996161;28;20022;-40
2022/01/18 02:10:10;;;;;;;2.60;1.85;;;;;;;;;;4996029;28;20022;-40
2022/01/18 02:12:36;;;;;;;4.68;1.63;;;;;;;;;;4995903;28;20041;-40
2022/01/18 02:15:11;;;;;;;3.28;1.50;;;;;;;;;;4996349;28;20018;-40
2022/01/18 02:23:29;;;;;;;6.38;1.95;;;;;;;;;;4996020;28;20084;-39
2022/01/18 02:25:55;;;;;;;3.45;1.77;;;;;;;;;;4995773;28;20026;-40
2022/01/18 02:28:22;;;;;;;1.85;1.33;;;;;;;;;;4995973;28;20034;-40
2022/01/18 02:30:51;;;;;;;3.17;1.55;;;;;;;;;;4995959;28;20401;-40
2022/01/18 02:33:17;;;;;;;9.85;2.03;;;;;;;;;;4995622;28;20406;-40
2022/01/18 02:35:44;;;;;;;2.97;1.92;;;;;;;;;;4995480;28;20030;-40
2022/01/18 02:38:10;;;;;;;7.60;2.78;;;;;;;;;;4995830;28;20414;-40
2022/01/18 02:40:35;;;;;;;6.40;1.75;;;;;;;;;;4995425;28;20030;-40
2022/01/18 02:45:51;;;;;;;11.27;1.95;;;;;;;;;;4995664;28;20493;-40
2022/01/18 02:48:17;;;;;;;7.90;2.00;;;;;;;;;;4995329;28;20480;-40
2022/01/18 02:50:42;;;;;;;7.97;2.22;;;;;;;;;;4995350;28;20093;-40
2022/01/18 02:53:08;;;;;;;6.55;2.20;;;;;;;;;;4995325;28;20027;-40
2022/01/18 02:55:33;;;;;;;7.60;2.13;;;;;;;;;;4995505;28;20092;-40
2022/01/18 02:58:08;;;;;;;3.88;2.10;;;;;;;;;;4995192;28;20133;-40
2022/01/18 03:03:11;;;;;;;6.13;1.70;;;;;;;;;;4995151;28;20030;-40
2022/01/18 03:03:34;;;;;;;2.13;1.50;;;;;;;;;;4994575;28;20043;-40
2022/01/18 03:06:02;;;;;;;5.45;1.85;;;;;;;;;;4995083;28;20026;-40
2022/01/18 03:08:28;;;;;;;4.70;1.92;;;;;;;;;;4994940;28;20375;-40
2022/01/18 03:10:55;;;;;;;5.30;2.50;;;;;;;;;;4995221;28;20418;-40
2022/01/18 03:13:21;;;;;;;3.88;2.10;;;;;;;;;;4994844;28;20032;-40
2022/01/18 03:15:46;;;;;;;2.58;1.73;;;;;;;;;;4994878;28;20034;-40
2022/01/18 03:18:12;;;;;;;5.30;2.20;;;;;;;;;;4994701;28;20026;-40
2022/01/18 03:20:38;;;;;;;6.53;2.45;;;;;;;;;;4994672;28;20030;-40
2022/01/18 03:23:09;;;;;;;6.65;2.00;;;;;;;;;;4994706;28;20586;-40
2022/01/18 03:28:05;;;;;;;7.68;2.15;;;;;;;;;;4994684;28;20386;-40
2022/01/18 03:30:35;;;;;;;3.90;2.15;;;;;;;;;;4994554;28;20037;-40
2022/01/18 03:33:01;;;;;;;5.10;2.35;;;;;;;;;;4994527;28;20625;-41
2022/01/18 03:35:26;;;;;;;7.25;2.33;;;;;;;;;;4994813;28;20152;-40
2022/01/18 03:37:52;;;;;;;5.03;2.47;;;;;;;;;;4994439;28;20046;-40
2022/01/18 03:40:18;;;;;;;5.55;2.70;;;;;;;;;;4994313;28;20045;-40
2022/01/18 03:42:47;;;;;;;7.22;2.20;;;;;;;;;;4994279;28;20034;-40
2022/01/18 03:45:15;;;;;;;6.82;2.60;;;;;;;;;;4994295;28;20094;-40
2022/01/18 03:47:41;;;;;;;7.65;2.45;;;;;;;;;;4994486;28;20383;-40
2022/01/18 03:50:08;;;;;;;4.22;1.92;;;;;;;;;;4994701;28;20364;-40
2022/01/18 03:52:34;;;;;;;4.25;2.03;;;;;;;;;;4994145;28;20030;-40
2022/01/18 03:54:59;;;;;;;5.63;2.40;;;;;;;;;;4994114;28;20022;-41
2022/01/18 03:57:25;;;;;;;5.57;2.25;;;;;;;;;;4994027;28;20085;-43
2022/01/18 03:59:51;;;;;;;5.55;2.13;;;;;;;;;;4994247;28;20106;-41
2022/01/18 04:02:16;;;;;;;4.53;1.90;;;;;;;;;;4992487;28;20458;-40
2022/01/18 04:04:42;;;;;;;4.75;1.77;;;;;;;;;;4993820;28;20022;-40
2022/01/18 04:07:08;;;;;;;5.95;2.03;;;;;;;;;;4994120;28;20453;-40
2022/01/18 04:09:35;;;;;;;4.65;2.13;;;;;;;;;;4993930;28;20030;-40
2022/01/18 04:12:00;;;;;;;7.15;1.63;;;;;;;;;;4994072;28;20042;-40
2022/01/18 04:14:26;;;;;;;8.55;2.15;;;;;;;;;;4992433;28;20029;-40
2022/01/18 04:17:51;;;;;;;8.60;2.17;;;;;;;;;;4993212;28;20033;-40
2022/01/18 04:27:51;;;;;;;6.45;1.98;;;;;;;;;;4993840;28;20040;-40
2022/01/18 04:30:16;;;;;;;3.60;1.92;;;;;;;;;;4993550;28;20034;-40
2022/01/18 04:32:42;;;;;;;5.50;2.30;;;;;;;;;;4993774;28;20022;-40
2022/01/18 04:35:07;;;;;;;5.90;2.20;;;;;;;;;;4993431;28;20114;-40
2022/01/18 04:37:33;;;;;;;7.65;2.55;;;;;;;;;;4992360;28;20030;-40
2022/01/18 04:39:59;;;;;;;5.05;2.42;;;;;;;;;;4993611;28;20513;-39
2022/01/18 04:42:47;;;;;;;6.93;1.92;;;;;;;;;;4993247;28;20493;-40
2022/01/18 04:50:41;;;;;;;7.38;2.22;;;;;;;;;;4993534;28;20085;-40
2022/01/18 04:53:06;;;;;;;6.47;2.30;;;;;;;;;;4993215;28;20497;-40
2022/01/18 04:55:33;;;;;;;6.18;2.13;;;;;;;;;;4993165;28;20018;-40
2022/01/18 04:57:59;;;;;;;7.53;2.33;;;;;;;;;;4993365;28;20027;-41
2022/01/18 05:00:25;;;;;;;4.50;2.30;;;;;;;;;;4992992;28;20427;-40
2022/01/18 05:02:51;;;;;;;7.38;2.45;;;;;;;;;;4992963;28;20101;-41
2022/01/18 05:05:26;;;;;;;3.55;2.05;;;;;;;;;;4993033;28;20113;-40
2022/01/18 05:07:54;;;;;;;3.38;1.95;;;;;;;;;;4993044;28;20030;-40
2022/01/18 05:10:23;;;;;;;6.85;2.22;;;;;;;;;;4992834;28;20027;-40
2022/01/18 05:12:52;;;;;;;8.55;2.45;;;;;;;;;;4993026;28;20434;-40
2022/01/18 05:18:57;;;;;;;5.20;2.40;;;;;;;;;;4993400;28;20062;-42
2022/01/18 05:21:14;;;;;;;10.52;2.45;;;;;;;;;;4992797;28;20058;-40
2022/01/18 05:23:39;;;;;;;13.27;2.92;;;;;;;;;;4992881;28;20467;-40
2022/01/18 05:26:05;;;;;;;7.68;2.50;;;;;;;;;;4993184;28;20037;-40
2022/01/18 05:28:30;;;;;;;5.03;2.58;;;;;;;;;;4995506;28;20117;-40
2022/01/18 05:30:55;;;;;;;9.43;2.45;;;;;;;;;;4997132;28;20359;-40
2022/01/18 05:33:22;;;;;;;8.98;2.97;;;;;;;;;;4997068;28;20537;-40
2022/01/18 05:35:48;;;;;;;8.88;3.25;;;;;;;;;;4996990;28;20381;-41
2022/01/18 05:38:14;;;;;;;9.43;2.90;;;;;;;;;;4996594;28;20036;-40
2022/01/18 05:40:39;;;;;;;7.43;2.80;;;;;;;;;;4996652;28;20110;-40
2022/01/18 05:43:05;;;;;;;10.55;2.58;;;;;;;;;;4996558;28;20470;-40
2022/01/18 05:45:31;;;;;;;6.22;2.63;;;;;;;;;;4996770;28;20034;-41
2022/01/18 05:47:57;;;;;;;8.48;3.13;;;;;;;;;;4997064;28;20022;-40
2022/01/18 05:50:25;;;;;;;9.50;3.20;;;;;;;;;;4996529;28;20072;-40
2022/01/18 05:52:50;;;;;;;7.85;3.00;;;;;;;;;;4996660;28;20026;-40
2022/01/18 05:55:16;;;;;;;16.10;2.60;;;;;;;;;;4996325;28;20394;-42
2022/01/18 05:57:42;;;;;;;6.45;2.28;;;;;;;;;;4996222;28;20030;-41
2022/01/18 06:00:12;;;;;;;5.57;2.40;;;;;;;;;;4996234;28;20033;-40
2022/01/18 06:07:52;;;;;;;10.23;2.40;;;;;;;;;;4996343;28;20077;-40
2022/01/18 06:10:18;;;;;;;10.60;2.90;;;;;;;;;;4996379;28;20432;-40
2022/01/18 06:12:44;;;;;;;11.80;4.20;;;;;;;;;;4996292;28;20097;-40
2022/01/18 06:15:09;;;;;;;6.18;3.38;;;;;;;;;;4995878;28;20105;-40
2022/01/18 06:17:35;;;;;;;4.93;2.95;;;;;;;;;;4996124;28;20110;-40
2022/01/18 06:20:00;;;;;;;7.30;3.20;;;;;;;;;;4996041;28;20382;-40
2022/01/18 06:22:26;;;;;;;13.32;3.50;;;;;;;;;;4995790;28;20034;-40
2022/01/18 06:24:51;;;;;;;7.10;3.70;;;;;;;;;;4996154;28;20105;-40
2022/01/18 06:27:17;;;;;;;19.77;10.77;;;;;;;;;;4995750;28;20027;-40
2022/01/18 06:29:43;;;;;;;24.95;10.07;;;;;;;;;;4995724;28;20107;-40
2022/01/18 06:32:09;;;;;;;18.20;8.70;;;;;;;;;;4995728;28;20026;-40
2022/01/18 06:34:34;;;;;;;19.77;8.55;;;;;;;;;;4996006;28;20069;-40
2022/01/18 06:37:00;;;;;;;22.92;9.73;;;;;;;;;;4995647;28;20033;-41
2022/01/18 06:39:26;;;;;;;15.10;7.72;;;;;;;;;;4994845;28;20031;-41
2022/01/18 06:41:51;;;;;;;25.85;9.48;;;;;;;;;;4995389;28;20033;-41
2022/01/18 06:44:17;;;;;;;20.10;8.45;;;;;;;;;;4995987;28;20414;-40
2022/01/18 06:46:43;;;;;;;11.85;5.53;;;;;;;;;;4995673;28;20434;-40
2022/01/18 06:49:08;;;;;;;12.07;4.93;;;;;;;;;;4995333;28;20037;-41
2022/01/18 06:51:34;;;;;;;8.75;4.28;;;;;;;;;;4995328;28;20121;-41
2022/01/18 06:54:00;;;;;;;10.32;3.75;;;;;;;;;;4995244;28;20034;-41
2022/01/18 06:56:26;;;;;;;10.45;4.03;;;;;;;;;;4995461;28;20038;-42
2022/01/18 06:58:53;;;;;;;6.07;3.38;;;;;;;;;;4995138;28;20033;-40
2022/01/18 07:01:20;;;;;;;16.00;4.55;;;;;;;;;;4995162;28;20047;-44
2022/01/18 07:03:47;;;;;;;12.63;4.40;;;;;;;;;;4995400;28;20105;-44
2022/01/18 07:06:12;;;;;;;8.68;3.95;;;;;;;;;;4995051;28;20022;-42
2022/01/18 07:08:38;;;;;;;10.23;3.55;;;;;;;;;;4995002;28;20037;-45
2022/01/18 07:11:04;;;;;;;9.52;3.45;;;;;;;;;;4995301;28;20030;-45
2022/01/18 07:13:29;;;;;;;12.23;4.60;;;;;;;;;;4994929;28;20033;-44
2022/01/18 07:15:55;;;;;;;9.48;4.55;;;;;;;;;;4995128;28;20026;-44
2022/01/18 07:18:20;;;;;;;11.82;4.20;;;;;;;;;;4994840;28;20109;-43
2022/01/18 07:20:46;;;;;;;10.45;3.42;;;;;;;;;;4995070;28;20081;-42
2022/01/18 07:23:13;;;;;;;9.05;4.53;;;;;;;;;;4995017;28;20126;-43
2022/01/18 07:25:42;;;;;;;9.40;3.50;;;;;;;;;;4994684;28;20022;-44
2022/01/18 07:28:10;;;;;;;8.88;4.22;;;;;;;;;;4993972;28;20053;-42
2022/01/18 07:30:36;;;;;;;13.25;5.70;;;;;;;;;;4993884;28;20393;-44
2022/01/18 07:33:02;;;;;;;15.38;7.18;;;;;;;;;;4994441;28;20018;-42
2022/01/18 07:35:28;;;;;;;8.85;3.80;;;;;;;;;;4994579;28;20430;-42
2022/01/18 07:37:53;;;;;;;10.07;4.07;;;;;;;;;;4993905;28;20433;-47
2022/01/18 07:40:19;;;;;;;11.95;4.75;;;;;;;;;;4994684;28;20026;-42
2022/01/18 07:42:44;;;;;;;9.73;3.90;;;;;;;;;;4994353;28;20026;-43
2022/01/18 07:45:10;;;;;;;11.60;4.35;;;;;;;;;;4991956;28;20026;-42
2022/01/18 07:47:35;;;;;;;8.63;3.95;;;;;;;;;;4994416;28;20110;-42
2022/01/18 07:50:01;;;;;;;13.13;4.60;;;;;;;;;;4994515;28;20030;-41
2022/01/18 07:52:27;;;;;;;12.15;4.43;;;;;;;;;;4993211;28;20038;-46
2022/01/18 07:54:52;;;;;;;10.30;4.88;;;;;;;;;;4994141;28;20038;-45
2022/01/18 07:57:19;;;;;;;17.30;3.75;;;;;;;;;;4994406;28;20022;-44
2022/01/18 07:59:45;;;;;;;10.52;3.78;;;;;;;;;;4994065;28;20108;-48
2022/01/18 08:02:10;;;;;;;14.63;4.82;;;;;;;;;;4993980;28;20093;-43
2022/01/18 08:04:36;;;;;;;10.07;4.75;;;;;;;;;;4993925;28;20030;-45
2022/01/18 08:07:01;;;;;;;12.00;4.03;;;;;;;;;;4993913;28;20033;-44
2022/01/18 08:09:26;;;;;;;9.75;3.45;;;;;;;;;;4994178;28;20041;-44
2022/01/18 08:11:52;;;;;;;8.80;4.10;;;;;;;;;;4993833;28;20026;-54
2022/01/18 08:14:18;;;;;;;9.43;3.65;;;;;;;;;;4994090;28;20030;-50
2022/01/18 08:16:49;;;;;;;14.90;5.82;;;;;;;;;;4994022;28;20029;-49
2022/01/18 08:19:17;;;;;;;13.57;5.38;;;;;;;;;;4993637;28;20054;-53
2022/01/18 08:21:42;;;;;;;14.82;5.03;;;;;;;;;;4993548;28;20453;-48
2022/01/18 08:24:08;;;;;;;15.25;4.88;;;;;;;;;;4993694;28;20109;-45
2022/01/18 08:26:33;;;;;;;15.80;4.68;;;;;;;;;;4994161;28;20026;-50
2022/01/18 08:29:02;;;;;;;21.88;5.72;;;;;;;;;;4993732;28;20176;-50
2022/01/18 08:31:27;;;;;;;9.82;3.80;;;;;;;;;;4994285;28;20416;-41
2022/01/18 08:33:53;;;;;;;12.38;5.40;;;;;;;;;;4994157;28;20030;-44
2022/01/18 08:36:19;;;;;;;9.77;3.90;;;;;;;;;;4994279;28;20152;-46
2022/01/18 08:38:46;;;;;;;8.27;3.63;;;;;;;;;;4994029;28;20030;-44
2022/01/18 08:41:11;;;;;;;11.68;4.05;;;;;;;;;;4993987;28;20030;-48
2022/01/18 08:43:37;;;;;;;10.00;4.28;;;;;;;;;;4994136;28;20037;-46
2022/01/18 08:46:04;;;;;;;18.75;8.02;;;;;;;;;;4993078;28;20028;-52
2022/01/18 08:48:30;;;;;;;19.20;7.35;;;;;;;;;;4991422;28;20026;-48
2022/01/18 08:50:57;;;;;;;28.75;10.50;;;;;;;;;;4993682;28;20627;-50
2022/01/18 08:53:22;;;;;;;20.08;3.72;;;;;;;;;;4993657;28;20459;-50
2022/01/18 08:55:48;;;;;;;11.20;3.78;;;;;;;;;;4993590;28;20145;-49
2022/01/18 08:58:13;;;;;;;15.05;4.35;;;;;;;;;;4993050;28;20026;-50
2022/01/18 09:00:39;;;;;;;14.48;3.95;;;;;;;;;;4991534;28;20065;-43
2022/01/18 09:03:06;;;;;;;60.95;7.40;;;;;;;;;;4991182;28;20089;-46
2022/01/18 09:05:31;;;;;;;13.38;4.70;;;;;;;;;;4991801;28;20360;-47
2022/01/18 09:08:00;;;;;;;14.18;5.03;;;;;;;;;;4991682;28;20453;-46
2022/01/18 09:10:26;;;;;;;15.30;4.30;;;;;;;;;;4991957;28;20105;-48
2022/01/18 09:12:52;;;;;;;10.98;4.97;;;;;;;;;;4990389;28;20515;-43
2022/01/18 09:15:18;;;;;;;11.15;4.10;;;;;;;;;;4992236;28;20510;-50
2022/01/18 09:17:44;;;;;;;12.15;4.50;;;;;;;;;;4991520;28;20030;-43
2022/01/18 09:20:12;;;;;;;10.82;3.72;;;;;;;;;;4991589;28;20037;-43
2022/01/18 09:22:41;;;;;;;20.45;9.60;;;;;;;;;;4991708;28;20041;-48
2022/01/18 09:25:10;;;;;;;17.30;6.38;;;;;;;;;;4991709;28;20080;-53
2022/01/18 09:27:36;;;;;;;12.15;4.32;;;;;;;;;;4991853;28;20030;-40
2022/01/18 09:30:04;;;;;;;11.93;3.85;;;;;;;;;;4991728;28;20429;-52
2022/01/18 09:32:30;;;;;;;10.23;3.80;;;;;;;;;;4991450;28;20390;-45
2022/01/18 09:34:55;;;;;;;12.75;4.65;;;;;;;;;;4991132;28;20105;-46
2022/01/18 09:37:21;;;;;;;9.07;3.55;;;;;;;;;;4991270;28;20526;-41
2022/01/18 09:39:46;;;;;;;12.40;5.20;;;;;;;;;;4991180;28;20497;-54
2022/01/18 09:42:13;;;;;;;16.50;4.63;;;;;;;;;;4990998;28;20410;-40
2022/01/18 09:44:39;;;;;;;10.52;3.67;;;;;;;;;;4990811;28;20030;-48
2022/01/18 09:47:05;;;;;;;14.07;4.75;;;;;;;;;;4990840;28;20026;-46
2022/01/18 09:49:32;;;;;;;7.60;2.92;;;;;;;;;;4991099;28;20045;-45
2022/01/18 09:51:57;;;;;;;12.77;3.58;;;;;;;;;;4991491;28;20066;-45
2022/01/18 09:54:23;;;;;;;11.10;3.72;;;;;;;;;;4990522;28;20061;-49
2022/01/18 09:56:48;;;;;;;11.35;4.00;;;;;;;;;;4991270;28;20034;-39
2022/01/18 09:59:14;;;;;;;7.78;3.22;;;;;;;;;;4989903;28;20093;-45
2022/01/18 10:01:39;;;;;;;11.65;3.80;;;;;;;;;;4990732;28;20042;-46
2022/01/18 10:04:30;;;;;;;13.88;3.60;;;;;;;;;;4990423;28;20035;-43
2022/01/18 10:06:57;;;;;;;36.40;4.63;;;;;;;;;;4989132;28;20666;-43
2022/01/18 10:09:24;;;;;;;11.27;3.92;;;;;;;;;;4990203;28;20030;-50
2022/01/18 10:12:01;;;;;;;13.20;3.75;;;;;;;;;;4990846;28;20042;-52
2022/01/18 10:14:28;;;;;;;12.52;3.63;;;;;;;;;;4992618;28;20034;-52
2022/01/18 10:16:53;;;;;;;10.02;3.63;;;;;;;;;;4993335;28;20036;-52
2022/01/18 10:19:42;;;;;;;8.98;3.70;;;;;;;;;;4994735;28;20125;-41
2022/01/18 10:22:14;;;;;;;12.13;2.92;;;;;;;;;;4994823;28;20034;-54
2022/01/18 10:24:41;;;;;;;16.63;3.83;;;;;;;;;;4994256;28;20030;-54
2022/01/18 10:27:07;;;;;;;11.50;3.35;;;;;;;;;;4994373;28;20043;-40
2022/01/18 10:29:48;;;;;;;11.55;2.83;;;;;;;;;;4994083;28;20037;-51
2022/01/18 10:35:04;;;;;;;13.68;3.13;;;;;;;;;;4994189;28;20018;-41
2022/01/18 10:37:30;;;;;;;12.85;3.00;;;;;;;;;;4994125;28;20046;-50
2022/01/18 10:39:59;;;;;;;13.00;4.50;;;;;;;;;;4994328;28;20030;-55
2022/01/18 10:42:38;;;;;;;9.45;4.22;;;;;;;;;;4993960;28;20026;-43
2022/01/18 10:45:12;;;;;;;9.80;2.40;;;;;;;;;;4994311;28;20520;-40
2022/01/18 10:47:48;;;;;;;10.85;3.00;;;;;;;;;;4994181;28;20554;-44
2022/01/18 10:50:15;;;;;;;9.75;2.97;;;;;;;;;;4994060;28;20435;-42
2022/01/18 10:52:41;;;;;;;8.32;2.33;;;;;;;;;;4994024;28;20026;-46
2022/01/18 10:55:14;;;;;;;7.47;2.78;;;;;;;;;;4994087;28;20077;-51
2022/01/18 10:57:40;;;;;;;13.05;3.20;;;;;;;;;;4994014;28;20092;-51
2022/01/18 11:00:07;;;;;;;10.73;3.35;;;;;;;;;;4993937;28;20390;-42
2022/01/18 11:02:39;;;;;;;13.02;3.25;;;;;;;;;;4993481;28;20042;-49
2022/01/18 11:05:12;;;;;;;6.85;2.63;;;;;;;;;;4993894;28;20033;-40
2022/01/18 11:07:39;;;;;;;4.97;2.38;;;;;;;;;;4993697;28;20034;-44
2022/01/18 11:10:06;;;;;;;12.25;2.70;;;;;;;;;;4993364;28;20204;-49
2022/01/18 11:12:53;;;;;;;14.40;2.92;;;;;;;;;;4992845;28;20482;-50
2022/01/18 11:15:21;;;;;;;6.22;2.17;;;;;;;;;;4993608;28;20034;-44
2022/01/18 11:17:57;;;;;;;7.97;2.78;;;;;;;;;;4993683;28;20088;-51
2022/01/18 11:20:23;;;;;;;11.05;2.75;;;;;;;;;;4993659;28;20426;-47
2022/01/18 11:22:50;;;;;;;11.13;3.45;;;;;;;;;;4993366;28;20510;-43
2022/01/18 11:25:17;;;;;;;11.48;3.22;;;;;;;;;;4992172;28;20026;-42
2022/01/18 11:27:48;;;;;;;8.48;2.60;;;;;;;;;;4994263;28;20042;-50
2022/01/18 11:30:14;;;;;;;8.25;2.65;;;;;;;;;;4993262;28;20057;-57
2022/01/18 11:32:40;;;;;;;7.50;2.85;;;;;;;;;;4993282;28;20034;-42
2022/01/18 11:35:11;;;;;;;8.23;2.80;;;;;;;;;;4993064;28;20027;-58
2022/01/18 11:37:46;;;;;;;11.50;2.95;;;;;;;;;;4993223;28;20039;-51
2022/01/18 11:40:18;;;;;;;13.10;5.70;;;;;;;;;;4992794;28;20037;-55
2022/01/18 11:42:53;;;;;;;13.90;2.90;;;;;;;;;;4991901;28;20026;-46
2022/01/18 11:45:24;;;;;;;7.72;2.78;;;;;;;;;;4992233;28;20026;-40
2022/01/18 11:48:05;;;;;;;7.70;2.70;;;;;;;;;;4992946;28;20050;-54
2022/01/18 11:50:37;;;;;;;49.70;5.90;;;;;;;;;;4992969;28;20130;-47
2022/01/18 11:53:44;;;;;;;7.53;2.97;;;;;;;;;;4991346;28;20045;-51
2022/01/18 11:56:33;;;;;;;7.68;2.78;;;;;;;;;;4991603;28;20031;-44
2022/01/18 11:59:16;;;;;;;9.20;3.35;;;;;;;;;;4992549;28;20109;-44
2022/01/18 12:01:54;;;;;;;6.93;2.53;;;;;;;;;;4992132;28;20120;-45
2022/01/18 12:04:49;;;;;;;13.27;2.83;;;;;;;;;;4992747;28;20034;-42
2022/01/18 12:07:39;;;;;;;8.43;3.58;;;;;;;;;;4992355;28;20030;-40
2022/01/18 12:10:32;;;;;;;11.90;3.88;;;;;;;;;;4992255;28;20034;-50
2022/01/18 12:13:01;;;;;;;10.65;4.60;;;;;;;;;;4992094;28;20030;-42
2022/01/18 12:15:46;;;;;;;15.07;5.10;;;;;;;;;;4992346;28;20034;-51
2022/01/18 12:18:15;;;;;;;20.65;9.32;;;;;;;;;;4991822;28;20038;-41
2022/01/18 12:20:44;;;;;;;10.57;2.92;;;;;;;;;;4992389;28;20076;-48
2022/01/18 12:23:09;;;;;;;12.60;2.60;;;;;;;;;;4992129;28;20045;-47
2022/01/18 12:28:49;;;;;;;6.32;2.53;;;;;;;;;;4991867;28;20077;-50
2022/01/18 12:32:27;;;;;;;9.43;2.67;;;;;;;;;;4991969;28;20117;-40
2022/01/18 12:34:27;;;;;;;12.88;3.13;;;;;;;;;;4988841;28;20053;-50
2022/01/18 12:37:14;;;;;;;8.23;3.08;;;;;;;;;;4991157;28;20483;-48
2022/01/18 12:40:05;;;;;;;14.10;3.17;;;;;;;;;;4990858;28;20042;-51
2022/01/18 12:45:09;;;;;;;11.55;3.72;;;;;;;;;;4991888;28;20034;-47
2022/01/18 12:47:45;;;;;;;10.10;2.70;;;;;;;;;;4992144;28;20030;-42
2022/01/18 12:50:11;;;;;;;9.13;3.28;;;;;;;;;;4991624;28;20030;-46
2022/01/18 12:52:57;;;;;;;10.68;3.22;;;;;;;;;;4991776;28;20023;-47
2022/01/18 12:55:46;;;;;;;8.88;2.80;;;;;;;;;;4991691;28;20034;-44
2022/01/18 12:58:19;;;;;;;9.85;3.00;;;;;;;;;;4991751;28;20026;-49
2022/01/18 13:00:52;;;;;;;8.57;3.10;;;;;;;;;;4991861;28;20030;-42
2022/01/18 13:03:24;;;;;;;8.65;2.63;;;;;;;;;;4991449;28;20104;-46
2022/01/18 13:05:53;;;;;;;11.70;2.95;;;;;;;;;;4991736;28;20042;-48
2022/01/18 13:08:20;;;;;;;10.25;3.30;;;;;;;;;;4991403;28;20038;-42
2022/01/18 13:10:49;;;;;;;8.40;2.83;;;;;;;;;;4991403;28;20066;-42
2022/01/18 13:13:19;;;;;;;13.40;3.20;;;;;;;;;;4991660;28;20038;-50
2022/01/18 13:26:49;;;;;;;15.43;3.80;;;;;;;;;;4991672;28;20121;-47
2022/01/18 13:29:28;;;;;;;8.88;2.97;;;;;;;;;;4991068;28;20491;-46
2022/01/18 13:34:46;;;;;;;16.63;6.82;;;;;;;;;;4991132;28;20018;-48
2022/01/18 13:37:14;;;;;;;15.20;8.60;;;;;;;;;;4991519;28;20042;-43
2022/01/18 13:39:50;;;;;;;17.45;8.73;;;;;;;;;;4991171;28;20026;-43
2022/01/18 13:42:18;;;;;;;16.23;5.00;;;;;;;;;;4991248;28;20022;-49
2022/01/18 13:45:07;;;;;;;6.28;3.08;;;;;;;;;;4991416;28;20033;-48
2022/01/18 13:47:41;;;;;;;7.93;2.80;;;;;;;;;;4993297;28;20363;-45
2022/01/18 13:50:25;;;;;;;11.60;4.53;;;;;;;;;;4996675;28;20034;-39
2022/01/18 13:53:19;;;;;;;12.40;6.25;;;;;;;;;;4996444;28;20022;-40
2022/01/18 13:55:53;;;;;;;12.23;2.83;;;;;;;;;;4990897;28;20475;-40
2022/01/18 13:58:29;;;;;;;9.02;3.35;;;;;;;;;;4996322;28;20018;-43
2022/01/18 14:01:10;;;;;;;9.35;3.45;;;;;;;;;;4996406;28;20022;-41
2022/01/18 14:03:36;;;;;;;;;;;;;;;;;;4996611;28;20061;-43
2022/01/18 14:06:03;;;;;;;8.50;2.85;;;;;;;;;;4996416;28;19910;-39
2022/01/18 14:08:38;;;;;;;13.73;3.17;;;;;;;;;;4994937;28;20031;-45
2022/01/18 14:11:07;;;;;;;12.32;3.90;;;;;;;;;;4996799;28;20042;-41
2022/01/18 14:13:36;;;;;;;9.43;3.55;;;;;;;;;;4996241;28;20487;-44
2022/01/18 14:16:17;;;;;;;9.70;3.65;;;;;;;;;;4996246;28;20399;-41
2022/01/18 14:19:00;;;;;;;13.98;4.60;;;;;;;;;;4995869;28;20029;-43
2022/01/18 14:21:46;;;;;;;6.85;3.92;;;;;;;;;;4996049;28;20084;-41
2022/01/18 14:24:18;;;;;;;14.55;4.47;;;;;;;;;;4995776;28;20486;-40
2022/01/18 14:26:53;;;;;;;10.23;3.97;;;;;;;;;;4996029;28;20030;-40
2022/01/18 14:29:24;;;;;;;10.95;3.53;;;;;;;;;;4995633;28;20077;-43
2022/01/18 14:32:34;;;;;;;12.05;4.07;;;;;;;;;;4995995;28;20030;-41
2022/01/18 14:35:21;;;;;;;12.73;3.30;;;;;;;;;;4985451;28;20038;-39
2022/01/18 14:37:49;;;;;;;6.80;2.58;;;;;;;;;;4995457;28;20427;-42
2022/01/18 14:40:29;;;;;;;7.43;3.13;;;;;;;;;;4995562;28;20030;-44
2022/01/18 14:43:04;;;;;;;13.65;3.50;;;;;;;;;;4995556;28;20029;-47
2022/01/18 14:45:41;;;;;;;19.33;5.30;;;;;;;;;;4995165;28;20030;-48
2022/01/18 14:48:12;;;;;;;10.43;3.70;;;;;;;;;;4995642;28;20035;-43
2022/01/18 14:50:41;;;;;;;11.95;4.50;;;;;;;;;;4995352;28;20105;-42
2022/01/18 14:53:07;;;;;;;12.98;3.75;;;;;;;;;;4995099;28;20552;-43
2022/01/18 14:55:33;;;;;;;13.38;4.18;;;;;;;;;;4995524;28;20101;-47
2022/01/18 14:57:59;;;;;;;9.18;3.85;;;;;;;;;;4994361;28;20034;-43
2022/01/18 15:00:25;;;;;;;18.95;4.25;;;;;;;;;;4994369;28;20162;-39
2022/01/18 15:02:51;;;;;;;12.10;5.25;;;;;;;;;;4994918;28;20047;-42
2022/01/18 15:05:17;;;;;;;15.10;6.72;;;;;;;;;;4994667;28;20124;-42
2022/01/18 15:07:43;;;;;;;21.17;7.95;;;;;;;;;;4994408;28;20086;-42
2022/01/18 15:10:10;;;;;;;16.67;8.18;;;;;;;;;;4994854;28;20026;-39
2022/01/18 15:12:38;;;;;;;15.00;5.20;;;;;;;;;;4995075;28;20096;-47
2022/01/18 15:15:04;;;;;;;10.82;4.18;;;;;;;;;;4994978;28;20014;-41
2022/01/18 15:17:29;;;;;;;8.13;3.97;;;;;;;;;;4994983;28;20036;-41
2022/01/18 15:19:55;;;;;;;13.38;4.47;;;;;;;;;;4994956;28;20026;-39
2022/01/18 15:22:21;;;;;;;10.13;3.00;;;;;;;;;;4994573;28;20026;-42
2022/01/18 15:24:47;;;;;;;11.13;3.55;;;;;;;;;;4994948;28;20038;-40
2022/01/18 15:27:13;;;;;;;12.20;3.65;;;;;;;;;;4994467;28;20054;-39
2022/01/18 15:29:41;;;;;;;6.70;2.60;;;;;;;;;;4994696;28;20053;-42
2022/01/18 15:32:07;;;;;;;11.77;3.40;;;;;;;;;;4994784;28;20038;-39
2022/01/18 15:34:33;;;;;;;14.05;4.47;;;;;;;;;;4993429;28;20046;-42
2022/01/18 15:36:58;;;;;;;22.40;7.13;;;;;;;;;;4994513;28;20065;-42
2022/01/18 15:39:24;;;;;;;23.52;7.57;;;;;;;;;;4994678;28;20046;-44
2022/01/18 15:41:50;;;;;;;21.23;6.68;;;;;;;;;;4994419;28;20058;-38
2022/01/18 15:44:17;;;;;;;22.67;8.23;;;;;;;;;;4994396;28;20033;-42
2022/01/18 15:46:43;;;;;;;20.92;7.03;;;;;;;;;;4994311;28;20027;-41
2022/01/18 15:49:08;;;;;;;17.33;6.30;;;;;;;;;;4994384;28;20447;-43
2022/01/18 15:51:35;;;;;;;18.73;5.88;;;;;;;;;;4994079;28;20065;-40
2022/01/18 15:54:02;;;;;;;19.67;5.70;;;;;;;;;;4994493;28;20034;-39
2022/01/18 15:56:27;;;;;;;24.85;7.00;;;;;;;;;;4994082;28;20030;-46
2022/01/18 15:58:53;;;;;;;22.27;6.72;;;;;;;;;;4994082;28;20033;-46
2022/01/18 16:01:19;;;;;;;23.67;7.05;;;;;;;;;;4994027;28;20125;-39
2022/01/18 16:03:44;;;;;;;16.00;7.15;;;;;;;;;;4993652;28;20475;-39
2022/01/18 16:06:10;;;;;;;24.73;7.60;;;;;;;;;;4994188;28;20025;-43
2022/01/18 16:08:36;;;;;;;20.38;7.88;;;;;;;;;;4993804;28;20482;-39
2022/01/18 16:11:03;;;;;;;18.92;7.43;;;;;;;;;;4993846;28;20113;-47
2022/01/18 16:13:28;;;;;;;20.25;6.80;;;;;;;;;;4993817;28;20081;-45
2022/01/18 16:15:54;;;;;;;20.35;7.15;;;;;;;;;;4994049;28;20022;-40
2022/01/18 16:18:22;;;;;;;18.33;6.38;;;;;;;;;;4992698;28;20438;-44